Time;durP1;ratioP1;P1;durP2;ratioP2;P2;SDS_P1;SDS_P2;PMS_P1;PMS_P2;Temp;Humidity;BMP_temperature;BMP_pressure;BME280_temperature;BME280_humidity;BME280_pressure;Samples;Min_cycle;Max_cycle;Signal;HPM_P1;HPM_P2
2023/05/18 00:01:23;;;;;;;9.27;4.53;;;;;;;;;;5006122;28;20050;-81
2023/05/18 00:03:53;;;;;;;12.15;4.70;;;;;;;;;;5025370;28;20100;-80
2023/05/18 00:06:27;;;;;;;8.73;4.60;;;;;;;;;;5019616;28;20050;-79
2023/05/18 00:08:54;;;;;;;10.63;4.50;;;;;;;;;;5015880;28;20138;-79
2023/05/18 00:11:21;;;;;;;10.73;4.65;;;;;;;;;;4998726;28;20112;-78
2023/05/18 00:13:49;;;;;;;9.88;5.00;;;;;;;;;;5016066;28;20058;-79
2023/05/18 00:16:16;;;;;;;8.95;4.38;;;;;;;;;;5016602;28;20100;-79
2023/05/18 00:18:43;;;;;;;8.90;4.43;;;;;;;;;;5015765;28;20053;-78
2023/05/18 00:21:12;;;;;;;11.50;4.65;;;;;;;;;;4998660;28;20056;-79
2023/05/18 00:23:39;;;;;;;11.27;4.47;;;;;;;;;;4998083;28;20062;-79
2023/05/18 00:26:06;;;;;;;10.43;4.72;;;;;;;;;;5015144;28;20054;-79
2023/05/18 00:28:34;;;;;;;9.30;4.53;;;;;;;;;;4998017;28;20080;-79
2023/05/18 00:31:01;;;;;;;10.45;4.60;;;;;;;;;;4997484;28;20045;-79
2023/05/18 00:33:28;;;;;;;9.60;4.70;;;;;;;;;;4997682;28;20060;-78
2023/05/18 00:35:56;;;;;;;7.60;4.35;;;;;;;;;;4998257;28;20058;-79
2023/05/18 00:38:23;;;;;;;10.73;4.57;;;;;;;;;;5015549;28;20138;-78
2023/05/18 00:40:51;;;;;;;10.63;4.72;;;;;;;;;;5001439;28;20061;-78
2023/05/18 00:43:20;;;;;;;8.90;4.65;;;;;;;;;;5015211;28;20050;-78
2023/05/18 00:45:47;;;;;;;7.68;4.50;;;;;;;;;;5015097;28;20487;-79
2023/05/18 00:48:15;;;;;;;9.85;4.78;;;;;;;;;;4997847;28;20056;-78
2023/05/18 00:50:42;;;;;;;6.15;4.10;;;;;;;;;;5015171;28;20133;-79
2023/05/18 00:53:09;;;;;;;9.50;4.20;;;;;;;;;;4998037;28;20494;-79
2023/05/18 00:55:37;;;;;;;10.48;4.53;;;;;;;;;;5015585;28;20096;-79
2023/05/18 00:58:04;;;;;;;11.68;5.00;;;;;;;;;;4998402;28;20108;-79
2023/05/18 01:00:32;;;;;;;8.65;4.80;;;;;;;;;;5015316;28;20047;-79
2023/05/18 01:03:00;;;;;;;10.68;4.65;;;;;;;;;;5015169;28;20046;-79
2023/05/18 01:05:28;;;;;;;9.40;5.35;;;;;;;;;;4998248;28;20054;-79
2023/05/18 01:07:57;;;;;;;13.02;5.38;;;;;;;;;;4998632;28;20180;-78
2023/05/18 01:10:24;;;;;;;11.65;5.57;;;;;;;;;;5015129;28;20054;-79
2023/05/18 01:13:02;;;;;;;12.10;5.50;;;;;;;;;;5014498;28;20084;-78
2023/05/18 01:15:35;;;;;;;17.48;5.53;;;;;;;;;;4996827;28;20054;-78
2023/05/18 01:18:22;;;;;;;13.10;5.00;;;;;;;;;;4997246;28;20181;-79
2023/05/18 01:20:57;;;;;;;10.80;5.07;;;;;;;;;;5014976;28;20057;-78
2023/05/18 01:23:43;;;;;;;12.25;4.68;;;;;;;;;;4997096;28;20180;-79
2023/05/18 01:26:14;;;;;;;12.77;5.07;;;;;;;;;;5014906;28;20054;-78
2023/05/18 01:28:45;;;;;;;11.13;5.22;;;;;;;;;;5014284;28;20045;-79
2023/05/18 01:31:14;;;;;;;12.85;5.15;;;;;;;;;;4997624;28;20049;-78
2023/05/18 01:33:42;;;;;;;11.73;4.75;;;;;;;;;;5015154;28;20104;-79
2023/05/18 01:36:10;;;;;;;11.35;5.30;;;;;;;;;;5014943;28;20049;-79
2023/05/18 01:38:38;;;;;;;10.90;5.40;;;;;;;;;;5014955;28;20046;-79
2023/05/18 01:41:16;;;;;;;10.10;5.03;;;;;;;;;;5014661;28;20045;-79
2023/05/18 01:43:48;;;;;;;11.48;5.60;;;;;;;;;;5014250;28;20053;-78
2023/05/18 01:46:24;;;;;;;8.90;5.05;;;;;;;;;;5014492;28;20451;-78
2023/05/18 01:48:56;;;;;;;8.18;4.82;;;;;;;;;;5014104;28;20136;-78
2023/05/18 01:51:26;;;;;;;9.88;5.18;;;;;;;;;;5014427;28;20483;-78
2023/05/18 01:54:05;;;;;;;11.52;5.22;;;;;;;;;;5014653;28;20100;-78
2023/05/18 01:56:33;;;;;;;12.88;5.07;;;;;;;;;;4997364;28;20046;-79
2023/05/18 01:59:00;;;;;;;12.38;4.95;;;;;;;;;;5015902;28;20046;-78
2023/05/18 02:01:27;;;;;;;13.00;5.20;;;;;;;;;;4996467;28;20046;-78
2023/05/18 02:03:55;;;;;;;10.95;5.30;;;;;;;;;;4999850;28;20046;-78
2023/05/18 02:06:22;;;;;;;11.73;5.30;;;;;;;;;;5004012;28;20104;-77
2023/05/18 02:08:50;;;;;;;11.52;4.97;;;;;;;;;;5001488;28;20458;-78
2023/05/18 02:11:17;;;;;;;10.90;5.85;;;;;;;;;;5017796;28;20135;-77
2023/05/18 02:13:45;;;;;;;14.98;5.68;;;;;;;;;;5000668;28;20046;-79
2023/05/18 02:16:12;;;;;;;8.85;4.93;;;;;;;;;;5001052;28;20065;-78
2023/05/18 02:18:40;;;;;;;12.27;5.20;;;;;;;;;;5000880;28;20053;-78
2023/05/18 02:21:08;;;;;;;16.40;5.22;;;;;;;;;;5000888;28;20132;-78
2023/05/18 02:23:36;;;;;;;10.15;5.57;;;;;;;;;;5000315;28;20129;-78
2023/05/18 02:26:03;;;;;;;13.05;6.25;;;;;;;;;;5017714;28;20066;-78
2023/05/18 02:28:30;;;;;;;12.13;5.70;;;;;;;;;;5000519;28;20108;-78
2023/05/18 02:31:05;;;;;;;8.88;5.22;;;;;;;;;;5000358;28;20057;-78
2023/05/18 02:33:35;;;;;;;8.82;5.22;;;;;;;;;;5017759;28;20060;-77
2023/05/18 02:36:02;;;;;;;12.25;5.28;;;;;;;;;;5017406;28;20046;-78
2023/05/18 02:38:29;;;;;;;12.50;4.95;;;;;;;;;;5000544;28;20058;-78
2023/05/18 02:40:56;;;;;;;10.80;5.20;;;;;;;;;;5017732;28;20454;-78
2023/05/18 02:43:24;;;;;;;12.07;5.47;;;;;;;;;;5017517;28;20056;-78
2023/05/18 02:45:51;;;;;;;5.22;4.60;;;;;;;;;;5017275;28;20053;-77
2023/05/18 02:48:19;;;;;;;12.55;5.00;;;;;;;;;;5017499;28;20077;-77
2023/05/18 02:50:48;;;;;;;12.60;5.13;;;;;;;;;;4999451;28;20054;-78
2023/05/18 02:53:17;;;;;;;10.77;4.82;;;;;;;;;;5016901;28;20046;-77
2023/05/18 02:55:45;;;;;;;9.20;5.38;;;;;;;;;;5016739;28;20096;-78
2023/05/18 02:58:12;;;;;;;9.73;4.82;;;;;;;;;;5017321;28;20422;-78
2023/05/18 03:00:40;;;;;;;10.98;4.30;;;;;;;;;;4999816;28;20100;-78
2023/05/18 03:03:09;;;;;;;13.60;4.70;;;;;;;;;;5017058;28;20103;-78
2023/05/18 03:05:37;;;;;;;10.40;4.97;;;;;;;;;;4999141;28;20100;-77
2023/05/18 03:08:04;;;;;;;13.25;5.20;;;;;;;;;;5016964;28;20108;-81
2023/05/18 03:10:32;;;;;;;10.25;5.25;;;;;;;;;;5019469;28;20053;-78
2023/05/18 03:12:59;;;;;;;9.55;4.97;;;;;;;;;;4999479;28;20499;-78
2023/05/18 03:15:30;;;;;;;8.93;4.75;;;;;;;;;;4999923;28;20045;-79
2023/05/18 03:18:00;;;;;;;14.13;5.40;;;;;;;;;;5018652;28;20053;-79
2023/05/18 03:20:30;;;;;;;13.65;5.93;;;;;;;;;;5016096;28;20050;-78
2023/05/18 03:22:57;;;;;;;8.57;5.00;;;;;;;;;;4998674;28;20061;-78
2023/05/18 03:25:25;;;;;;;9.02;5.25;;;;;;;;;;5015974;28;20060;-78
2023/05/18 03:27:52;;;;;;;11.85;5.38;;;;;;;;;;5016066;28;20096;-78
2023/05/18 03:30:21;;;;;;;15.50;6.28;;;;;;;;;;4998998;28;20049;-78
2023/05/18 03:32:48;;;;;;;10.20;5.60;;;;;;;;;;5015746;28;20100;-78
2023/05/18 03:35:15;;;;;;;7.55;5.82;;;;;;;;;;4998740;28;20094;-78
2023/05/18 03:37:42;;;;;;;14.68;5.10;;;;;;;;;;5015779;28;20104;-78
2023/05/18 03:40:10;;;;;;;18.08;5.90;;;;;;;;;;4998982;28;20053;-78
2023/05/18 03:42:38;;;;;;;12.20;5.50;;;;;;;;;;4998608;28;20589;-78
2023/05/18 03:45:06;;;;;;;10.80;6.00;;;;;;;;;;5016488;28;20053;-77
2023/05/18 03:47:33;;;;;;;14.45;6.35;;;;;;;;;;5016024;28;20053;-78
2023/05/18 03:50:00;;;;;;;17.50;6.43;;;;;;;;;;5015592;28;20056;-78
2023/05/18 03:52:28;;;;;;;16.17;6.43;;;;;;;;;;5015330;28;20050;-77
2023/05/18 03:54:56;;;;;;;15.45;5.60;;;;;;;;;;4998187;28;20050;-78
2023/05/18 03:57:23;;;;;;;10.90;6.20;;;;;;;;;;4997764;28;20045;-77
2023/05/18 03:59:51;;;;;;;17.77;6.28;;;;;;;;;;4998010;28;20104;-78
2023/05/18 04:02:18;;;;;;;12.65;6.95;;;;;;;;;;4997909;28;20061;-78
2023/05/18 04:04:46;;;;;;;18.55;6.78;;;;;;;;;;4997900;28;20136;-78
2023/05/18 04:07:15;;;;;;;13.23;6.40;;;;;;;;;;4997675;28;20120;-78
2023/05/18 04:09:43;;;;;;;14.27;7.15;;;;;;;;;;4997573;28;20108;-78
2023/05/18 04:12:10;;;;;;;15.13;6.72;;;;;;;;;;4997674;28;20061;-78
2023/05/18 04:14:41;;;;;;;17.85;7.07;;;;;;;;;;5014743;28;20058;-78
2023/05/18 04:17:08;;;;;;;13.63;8.02;;;;;;;;;;5015367;28;20108;-78
2023/05/18 04:19:37;;;;;;;19.77;9.07;;;;;;;;;;5014903;28;20046;-79
2023/05/18 04:22:05;;;;;;;18.83;8.50;;;;;;;;;;4998021;28;20116;-79
2023/05/18 04:24:33;;;;;;;13.07;8.68;;;;;;;;;;4998119;28;20057;-79
2023/05/18 04:27:01;;;;;;;19.60;9.82;;;;;;;;;;5013947;28;20056;-78
2023/05/18 04:29:29;;;;;;;13.48;9.20;;;;;;;;;;5001324;28;20050;-78
2023/05/18 04:31:59;;;;;;;15.45;9.90;;;;;;;;;;4998248;28;20046;-78
2023/05/18 04:34:28;;;;;;;23.65;10.82;;;;;;;;;;5015349;28;20056;-78
2023/05/18 04:36:57;;;;;;;18.83;11.57;;;;;;;;;;4997742;28;20458;-77
2023/05/18 04:39:24;;;;;;;20.40;13.48;;;;;;;;;;4998239;28;20072;-78
2023/05/18 04:41:58;;;;;;;20.63;10.32;;;;;;;;;;5015418;28;20050;-78
2023/05/18 04:44:26;;;;;;;18.60;10.32;;;;;;;;;;5015465;28;20116;-79
2023/05/18 04:46:55;;;;;;;15.52;9.75;;;;;;;;;;4997941;28;20445;-78
2023/05/18 04:49:22;;;;;;;15.93;9.48;;;;;;;;;;5016184;28;20442;-78
2023/05/18 04:51:54;;;;;;;15.77;7.93;;;;;;;;;;5015972;28;20054;-78
2023/05/18 04:54:25;;;;;;;20.27;7.53;;;;;;;;;;4998063;28;20081;-77
2023/05/18 04:56:52;;;;;;;17.60;8.80;;;;;;;;;;4997033;28;20100;-78
2023/05/18 04:59:24;;;;;;;16.00;12.85;;;;;;;;;;4997548;28;20108;-78
2023/05/18 05:01:53;;;;;;;12.43;6.65;;;;;;;;;;4997140;28;20054;-77
2023/05/18 05:04:20;;;;;;;9.90;5.93;;;;;;;;;;4997091;28;20053;-78
2023/05/18 05:06:48;;;;;;;12.00;7.63;;;;;;;;;;4996985;28;20127;-77
2023/05/18 05:09:15;;;;;;;8.52;5.32;;;;;;;;;;4997177;28;20049;-78
2023/05/18 05:11:42;;;;;;;14.88;4.38;;;;;;;;;;4996828;28;20054;-78
2023/05/18 05:14:09;;;;;;;11.75;3.90;;;;;;;;;;4996881;28;20104;-79
2023/05/18 05:16:37;;;;;;;10.43;3.47;;;;;;;;;;5014483;28;20046;-78
2023/05/18 05:19:04;;;;;;;15.77;3.38;;;;;;;;;;5014446;28;20068;-78
2023/05/18 05:21:32;;;;;;;7.63;2.88;;;;;;;;;;5014472;28;20046;-78
2023/05/18 05:24:03;;;;;;;16.55;3.00;;;;;;;;;;4997025;28;20396;-78
2023/05/18 05:26:31;;;;;;;8.00;2.88;;;;;;;;;;5014967;28;20053;-78
2023/05/18 05:28:58;;;;;;;12.98;3.20;;;;;;;;;;5014366;28;20058;-78
2023/05/18 05:31:25;;;;;;;8.43;2.30;;;;;;;;;;5014661;28;20462;-78
2023/05/18 05:33:52;;;;;;;16.20;3.60;;;;;;;;;;4996783;28;20045;-78
2023/05/18 05:36:20;;;;;;;11.45;3.17;;;;;;;;;;4996904;28;20053;-78
2023/05/18 05:38:47;;;;;;;8.27;2.38;;;;;;;;;;5017414;28;20396;-78
2023/05/18 05:41:14;;;;;;;14.85;3.00;;;;;;;;;;5000941;28;20054;-79
2023/05/18 05:43:42;;;;;;;15.82;3.28;;;;;;;;;;5001216;28;20418;-78
2023/05/18 05:46:09;;;;;;;12.98;2.75;;;;;;;;;;5018031;28;20077;-76
2023/05/18 05:48:36;;;;;;;6.60;2.67;;;;;;;;;;4999917;28;20458;-79
2023/05/18 05:51:04;;;;;;;18.20;3.33;;;;;;;;;;5017613;28;20096;-77
2023/05/18 05:53:32;;;;;;;15.73;3.10;;;;;;;;;;5000657;28;20050;-75
2023/05/18 05:55:59;;;;;;;115.20;64.50;;;;;;;;;;5000653;28;20488;-77
2023/05/18 05:58:26;;;;;;;14.75;3.00;;;;;;;;;;5000843;28;20045;-76
2023/05/18 06:00:54;;;;;;;13.38;3.25;;;;;;;;;;4999108;28;20124;-75
2023/05/18 06:03:21;;;;;;;15.48;6.50;;;;;;;;;;4999190;28;20062;-75
2023/05/18 06:05:49;;;;;;;20.10;4.95;;;;;;;;;;5016326;28;20068;-76
2023/05/18 06:08:16;;;;;;;74.88;48.35;;;;;;;;;;4999303;28;20081;-76
2023/05/18 06:10:43;;;;;;;14.68;3.17;;;;;;;;;;4998702;28;20458;-76
2023/05/18 06:13:11;;;;;;;9.48;4.22;;;;;;;;;;5016372;28;20053;-77
2023/05/18 06:15:38;;;;;;;24.00;15.15;;;;;;;;;;4999156;28;20470;-76
2023/05/18 06:18:05;;;;;;;6.57;2.85;;;;;;;;;;4999456;28;20103;-78
2023/05/18 06:20:33;;;;;;;12.40;4.40;;;;;;;;;;5000349;28;20054;-77
2023/05/18 06:23:00;;;;;;;11.95;3.78;;;;;;;;;;5017595;28;20057;-76
2023/05/18 06:25:27;;;;;;;8.05;3.72;;;;;;;;;;5017798;28;20053;-78
2023/05/18 06:27:55;;;;;;;19.02;12.02;;;;;;;;;;5016738;28;20554;-76
2023/05/18 06:30:23;;;;;;;10.50;3.50;;;;;;;;;;5018121;28;20495;-79
2023/05/18 06:32:50;;;;;;;5.40;2.50;;;;;;;;;;4998774;28;20561;-78
2023/05/18 06:35:17;;;;;;;6.57;1.90;;;;;;;;;;4999285;28;20045;-75
2023/05/18 06:37:45;;;;;;;5.15;2.20;;;;;;;;;;4998475;28;20046;-75
2023/05/18 06:40:13;;;;;;;8.15;2.65;;;;;;;;;;5016047;28;20241;-76
2023/05/18 06:42:40;;;;;;;8.07;2.00;;;;;;;;;;5015756;28;20046;-75
2023/05/18 06:45:07;;;;;;;7.65;2.00;;;;;;;;;;5015828;28;20054;-76
2023/05/18 06:47:35;;;;;;;8.13;2.40;;;;;;;;;;5021936;28;20046;-80
2023/05/18 06:50:03;;;;;;;9.68;2.30;;;;;;;;;;5021481;28;20046;-79
2023/05/18 06:52:31;;;;;;;4.68;1.98;;;;;;;;;;5024723;28;20052;-79
2023/05/18 06:55:00;;;;;;;9.20;2.30;;;;;;;;;;5003288;28;20049;-80
2023/05/18 06:57:27;;;;;;;4.93;1.77;;;;;;;;;;5003740;28;20140;-79
2023/05/18 06:59:54;;;;;;;5.88;1.65;;;;;;;;;;5003448;28;20057;-79
2023/05/18 07:02:22;;;;;;;7.25;2.10;;;;;;;;;;5003950;28;20050;-80
2023/05/18 07:04:49;;;;;;;7.70;2.33;;;;;;;;;;5021253;28;20422;-79
2023/05/18 07:07:16;;;;;;;5.18;1.90;;;;;;;;;;5005356;28;20103;-79
2023/05/18 07:09:44;;;;;;;6.22;1.70;;;;;;;;;;5005379;28;20050;-80
2023/05/18 07:12:12;;;;;;;15.55;2.70;;;;;;;;;;5002865;28;20408;-79
2023/05/18 07:14:39;;;;;;;6.68;2.10;;;;;;;;;;5019600;28;20096;-79
2023/05/18 07:17:07;;;;;;;5.88;2.00;;;;;;;;;;5002171;28;20054;-80
2023/05/18 07:19:34;;;;;;;3.95;1.80;;;;;;;;;;5002474;28;20100;-79
2023/05/18 07:22:03;;;;;;;5.63;2.33;;;;;;;;;;5000636;28;20495;-78
2023/05/18 07:24:30;;;;;;;8.07;2.80;;;;;;;;;;5000433;28;20058;-80
2023/05/18 07:26:57;;;;;;;9.38;2.33;;;;;;;;;;5001076;28;20411;-77
2023/05/18 07:29:29;;;;;;;7.55;2.40;;;;;;;;;;5001551;28;20140;-79
2023/05/18 07:31:56;;;;;;;10.55;2.70;;;;;;;;;;5019557;28;20054;-79
2023/05/18 07:34:25;;;;;;;5.22;2.00;;;;;;;;;;5000852;28;20057;-78
2023/05/18 07:36:53;;;;;;;12.93;2.38;;;;;;;;;;5018769;28;20042;-78
2023/05/18 07:39:27;;;;;;;7.13;2.50;;;;;;;;;;5018925;28;20495;-79
2023/05/18 07:41:55;;;;;;;9.25;2.50;;;;;;;;;;5021710;28;20046;-80
2023/05/18 07:44:23;;;;;;;8.68;2.38;;;;;;;;;;5021582;28;20531;-80
2023/05/18 07:46:50;;;;;;;10.38;4.00;;;;;;;;;;5004096;28;20058;-77
2023/05/18 07:49:18;;;;;;;15.85;4.43;;;;;;;;;;5021264;28;20144;-80
2023/05/18 07:51:45;;;;;;;10.55;4.25;;;;;;;;;;5003988;28;20466;-81
2023/05/18 07:54:12;;;;;;;7.22;2.00;;;;;;;;;;5005167;28;20052;-80
2023/05/18 07:56:40;;;;;;;4.80;1.90;;;;;;;;;;5023614;28;20053;-80
2023/05/18 07:59:08;;;;;;;7.38;3.53;;;;;;;;;;5005528;28;20054;-80
2023/05/18 08:01:37;;;;;;;7.82;2.05;;;;;;;;;;5006382;28;20050;-81
2023/05/18 08:04:04;;;;;;;12.23;7.47;;;;;;;;;;5023493;28;20052;-80
2023/05/18 08:06:32;;;;;;;6.93;2.60;;;;;;;;;;5007542;28;20086;-80
2023/05/18 08:08:59;;;;;;;9.18;2.00;;;;;;;;;;5000942;28;20392;-80
2023/05/18 08:11:27;;;;;;;7.07;1.95;;;;;;;;;;4997008;28;20058;-81
2023/05/18 08:13:54;;;;;;;5.15;2.20;;;;;;;;;;4997417;28;20101;-80
2023/05/18 08:16:22;;;;;;;11.65;2.78;;;;;;;;;;4998261;28;20101;-80
2023/05/18 08:18:49;;;;;;;5.40;1.88;;;;;;;;;;5000572;28;20051;-80
2023/05/18 08:21:17;;;;;;;8.95;2.20;;;;;;;;;;5000330;28;20081;-80
2023/05/18 08:23:44;;;;;;;6.45;2.47;;;;;;;;;;5000912;28;20050;-81
2023/05/18 08:26:11;;;;;;;7.18;1.90;;;;;;;;;;5001826;28;20046;-81
2023/05/18 08:28:40;;;;;;;7.38;2.33;;;;;;;;;;5001481;28;20057;-80
2023/05/18 08:31:08;;;;;;;8.15;2.10;;;;;;;;;;4995910;28;20050;-80
2023/05/18 08:33:35;;;;;;;4.53;1.90;;;;;;;;;;4997437;28;20046;-80
2023/05/18 08:36:02;;;;;;;4.80;2.25;;;;;;;;;;4997189;28;20050;-80
2023/05/18 08:38:30;;;;;;;7.47;2.70;;;;;;;;;;4996776;28;20096;-80
2023/05/18 08:41:17;;;;;;;9.73;2.40;;;;;;;;;;4996515;28;20053;-78
2023/05/18 08:43:46;;;;;;;6.57;2.20;;;;;;;;;;4995923;28;20046;-80
2023/05/18 08:46:20;;;;;;;7.90;2.20;;;;;;;;;;4997127;28;20570;-81
2023/05/18 08:48:52;;;;;;;8.68;2.60;;;;;;;;;;4998660;28;20077;-81
2023/05/18 08:51:20;;;;;;;7.65;2.63;;;;;;;;;;4996729;28;20129;-81
2023/05/18 08:53:51;;;;;;;12.55;3.30;;;;;;;;;;4997413;28;20500;-80
2023/05/18 08:56:22;;;;;;;9.82;2.47;;;;;;;;;;4996540;28;20109;-79
2023/05/18 08:58:51;;;;;;;5.35;1.98;;;;;;;;;;4997724;28;20054;-79
2023/05/18 09:01:18;;;;;;;6.07;2.05;;;;;;;;;;4997553;28;20054;-80
2023/05/18 09:03:48;;;;;;;6.72;2.03;;;;;;;;;;4997578;28;20137;-80
2023/05/18 09:06:15;;;;;;;4.47;1.48;;;;;;;;;;4998060;28;20050;-81
2023/05/18 09:08:43;;;;;;;6.10;2.15;;;;;;;;;;5004562;28;20064;-79
2023/05/18 09:11:12;;;;;;;8.80;2.42;;;;;;;;;;4999623;28;20574;-81
2023/05/18 09:13:39;;;;;;;6.97;2.25;;;;;;;;;;4995307;28;20046;-81
2023/05/18 09:16:07;;;;;;;6.43;2.70;;;;;;;;;;4996852;28;20054;-80
2023/05/18 09:18:34;;;;;;;8.77;2.30;;;;;;;;;;4996550;28;20053;-77
2023/05/18 09:21:02;;;;;;;5.95;2.28;;;;;;;;;;4998293;28;20047;-79
2023/05/18 09:23:30;;;;;;;9.82;1.95;;;;;;;;;;4998167;28;20083;-79
2023/05/18 09:25:58;;;;;;;7.35;1.88;;;;;;;;;;4998760;28;20050;-80
2023/05/18 09:28:36;;;;;;;8.27;2.10;;;;;;;;;;4998202;28;20050;-80
2023/05/18 09:31:07;;;;;;;7.30;1.83;;;;;;;;;;4999809;28;20495;-80
2023/05/18 09:33:36;;;;;;;5.82;1.92;;;;;;;;;;4999915;28;20050;-81
2023/05/18 09:36:07;;;;;;;6.28;1.70;;;;;;;;;;4998629;28;20066;-82
2023/05/18 09:38:38;;;;;;;7.50;2.50;;;;;;;;;;4999580;28;20409;-80
2023/05/18 09:41:14;;;;;;;8.50;2.33;;;;;;;;;;5003400;28;20046;-81
2023/05/18 09:43:50;;;;;;;8.95;2.10;;;;;;;;;;4998059;28;20077;-77
2023/05/18 09:46:31;;;;;;;6.80;1.88;;;;;;;;;;4994277;28;20428;-81
2023/05/18 09:49:02;;;;;;;7.18;2.53;;;;;;;;;;4997835;28;20120;-76
2023/05/18 09:51:30;;;;;;;6.07;1.90;;;;;;;;;;4994314;28;20416;-77
2023/05/18 09:53:58;;;;;;;5.18;1.52;;;;;;;;;;4994380;28;20043;-78
2023/05/18 09:56:26;;;;;;;6.10;2.05;;;;;;;;;;5000355;28;20047;-80
2023/05/18 09:59:22;;;;;;;6.63;1.98;;;;;;;;;;4998262;28;20496;-82
2023/05/18 10:02:11;;;;;;;7.03;2.08;;;;;;;;;;4998564;28;20121;-83
2023/05/18 10:04:57;;;;;;;7.50;2.17;;;;;;;;;;4999590;28;20534;-82
2023/05/18 10:07:37;;;;;;;6.28;1.77;;;;;;;;;;4999270;28;20055;-81
2023/05/18 10:10:08;;;;;;;6.72;1.80;;;;;;;;;;4996422;28;20054;-81
2023/05/18 10:12:43;;;;;;;7.28;1.77;;;;;;;;;;4998744;28;20046;-83
2023/05/18 10:15:21;;;;;;;4.43;1.65;;;;;;;;;;4995334;28;20057;-78
2023/05/18 10:17:52;;;;;;;8.20;1.77;;;;;;;;;;4992172;28;20050;-79
2023/05/18 10:20:35;;;;;;;11.57;1.95;;;;;;;;;;4997930;28;20047;-82
2023/05/18 10:23:05;;;;;;;4.22;1.40;;;;;;;;;;4999708;28;20400;-81
2023/05/18 10:25:33;;;;;;;4.45;1.55;;;;;;;;;;4997480;28;20108;-79
2023/05/18 10:28:03;;;;;;;7.18;2.20;;;;;;;;;;4997588;28;20058;-78
2023/05/18 10:30:31;;;;;;;7.32;1.40;;;;;;;;;;4997776;28;20057;-79
2023/05/18 10:33:00;;;;;;;6.38;1.40;;;;;;;;;;4996193;28;20141;-79
2023/05/18 10:35:28;;;;;;;3.42;1.40;;;;;;;;;;4995932;28;20057;-81
2023/05/18 10:37:56;;;;;;;7.95;2.08;;;;;;;;;;4999370;28;20112;-80
2023/05/18 10:40:24;;;;;;;5.88;1.90;;;;;;;;;;4996040;28;20050;-79
2023/05/18 10:42:51;;;;;;;5.60;1.95;;;;;;;;;;4997114;28;20058;-78
2023/05/18 10:45:19;;;;;;;6.65;1.63;;;;;;;;;;4997153;28;20117;-78
2023/05/18 10:47:52;;;;;;;8.63;1.50;;;;;;;;;;4995678;28;20096;-77
2023/05/18 10:50:22;;;;;;;4.45;1.50;;;;;;;;;;4995641;28;20488;-79
2023/05/18 10:52:51;;;;;;;6.40;1.77;;;;;;;;;;4995476;28;20116;-78
2023/05/18 10:55:19;;;;;;;5.93;1.30;;;;;;;;;;4995401;28;20109;-79
2023/05/18 10:57:49;;;;;;;7.40;1.60;;;;;;;;;;4995854;28;20109;-77
2023/05/18 11:00:16;;;;;;;3.55;1.35;;;;;;;;;;4995851;28;20516;-78
2023/05/18 11:02:44;;;;;;;8.48;1.40;;;;;;;;;;4995656;28;20054;-78
2023/05/18 11:05:11;;;;;;;4.95;1.48;;;;;;;;;;4997137;28;20112;-78
2023/05/18 11:07:40;;;;;;;3.15;1.48;;;;;;;;;;4997337;28;20495;-79
2023/05/18 11:10:10;;;;;;;5.97;2.05;;;;;;;;;;4995919;28;20054;-77
2023/05/18 11:12:39;;;;;;;6.40;1.60;;;;;;;;;;5025911;23;20057;-84
2023/05/18 11:15:07;;;;;;;8.55;1.98;;;;;;;;;;5015903;28;20050;-94
2023/05/18 11:17:35;;;;;;;5.95;1.60;;;;;;;;;;4998858;28;20071;-83
2023/05/18 11:20:06;;;;;;;5.22;1.70;;;;;;;;;;4998946;28;20085;-87
2023/05/18 11:22:41;;;;;;;6.07;1.27;;;;;;;;;;4998714;28;20075;-87
2023/05/18 11:25:09;;;;;;;5.85;1.77;;;;;;;;;;4998547;28;20486;-87
2023/05/18 11:27:37;;;;;;;5.35;1.52;;;;;;;;;;5016059;28;20046;-92
2023/05/18 11:30:24;;;;;;;6.18;1.15;;;;;;;;;;5015866;28;20506;-86
2023/05/18 11:32:52;;;;;;;2.72;1.40;;;;;;;;;;4998421;28;20058;-86
2023/05/18 11:35:23;;;;;;;6.28;1.67;;;;;;;;;;4997880;28;20465;-86
2023/05/18 11:37:50;;;;;;;9.32;2.17;;;;;;;;;;4998517;28;20439;-85
2023/05/18 11:40:56;;;;;;;7.50;1.45;;;;;;;;;;4998515;28;20509;-85
2023/05/18 11:43:24;;;;;;;4.90;1.65;;;;;;;;;;4954788;29;20555;-88
2023/05/18 11:45:55;;;;;;;3.28;1.45;;;;;;;;;;4954773;29;20087;-88
2023/05/18 11:48:27;;;;;;;4.18;1.63;;;;;;;;;;4979950;28;20049;-87
2023/05/18 11:50:55;;;;;;;7.55;1.58;;;;;;;;;;5014859;28;20061;-87
2023/05/18 11:53:23;;;;;;;5.07;1.48;;;;;;;;;;5014963;28;20081;-85
2023/05/18 11:55:55;;;;;;;8.40;2.00;;;;;;;;;;4997639;28;20077;-85
2023/05/18 11:58:25;;;;;;;3.53;1.45;;;;;;;;;;5014847;28;20045;-86
2023/05/18 12:00:54;;;;;;;3.03;1.40;;;;;;;;;;4997853;28;20144;-86
2023/05/18 12:03:25;;;;;;;4.47;1.20;;;;;;;;;;5015225;28;20057;-86
2023/05/18 12:05:53;;;;;;;3.80;1.50;;;;;;;;;;4997829;28;20053;-87
2023/05/18 12:08:28;;;;;;;6.45;1.63;;;;;;;;;;5016230;28;20061;-86
2023/05/18 12:10:56;;;;;;;2.88;1.10;;;;;;;;;;4998062;28;20054;-86
2023/05/18 12:13:24;;;;;;;5.13;1.55;;;;;;;;;;4997622;28;20089;-87
2023/05/18 12:15:51;;;;;;;5.15;1.38;;;;;;;;;;5014713;28;20093;-86
2023/05/18 12:18:19;;;;;;;7.57;1.85;;;;;;;;;;4998085;28;20045;-86
2023/05/18 12:20:48;;;;;;;7.47;1.55;;;;;;;;;;5014444;28;20068;-85
2023/05/18 12:23:16;;;;;;;6.13;1.80;;;;;;;;;;5014717;28;20049;-85
2023/05/18 12:25:43;;;;;;;4.97;1.60;;;;;;;;;;5014511;28;20078;-84
2023/05/18 12:28:10;;;;;;;4.88;1.42;;;;;;;;;;4996995;28;20046;-86
2023/05/18 12:30:38;;;;;;;5.35;1.38;;;;;;;;;;4997219;28;20049;-86
2023/05/18 12:33:06;;;;;;;2.15;1.02;;;;;;;;;;4997433;28;20418;-90
2023/05/18 12:35:33;;;;;;;3.78;1.70;;;;;;;;;;4996891;28;20108;-87
2023/05/18 12:38:01;;;;;;;9.00;1.90;;;;;;;;;;4997360;28;20056;-86
2023/05/18 12:40:42;;;;;;;4.05;1.48;;;;;;;;;;4996965;28;20391;-85
2023/05/18 12:43:10;;;;;;;4.70;1.70;;;;;;;;;;4996857;28;20078;-86
2023/05/18 12:45:37;;;;;;;6.07;2.13;;;;;;;;;;4996790;28;20057;-86
2023/05/18 12:48:08;;;;;;;9.95;3.22;;;;;;;;;;5013570;28;20054;-85
2023/05/18 12:50:35;;;;;;;62.63;30.77;;;;;;;;;;4996701;28;20052;-85
2023/05/18 12:53:03;;;;;;;16.80;7.03;;;;;;;;;;5014028;28;20049;-87
2023/05/18 12:55:31;;;;;;;17.27;6.53;;;;;;;;;;4996909;28;20057;-86
2023/05/18 12:58:00;;;;;;;7.85;2.90;;;;;;;;;;4997107;28;20138;-87
2023/05/18 13:00:31;;;;;;;3.55;1.63;;;;;;;;;;5014030;28;20108;-85
2023/05/18 13:03:08;;;;;;;7.57;1.55;;;;;;;;;;4996774;28;20525;-86
2023/05/18 13:05:41;;;;;;;3.15;1.80;;;;;;;;;;4997047;28;20049;-85
2023/05/18 13:08:08;;;;;;;9.20;2.72;;;;;;;;;;5013925;28;20053;-86
2023/05/18 13:10:35;;;;;;;9.05;1.90;;;;;;;;;;4996526;28;20095;-87
2023/05/18 13:13:03;;;;;;;4.88;1.40;;;;;;;;;;4993011;28;20109;-87
2023/05/18 13:15:34;;;;;;;3.25;1.40;;;;;;;;;;4992805;28;20054;-86
2023/05/18 13:18:03;;;;;;;4.63;1.48;;;;;;;;;;4994095;28;20050;-85
2023/05/18 13:20:41;;;;;;;6.43;1.50;;;;;;;;;;4996275;28;20054;-84
2023/05/18 13:23:09;;;;;;;2.80;1.20;;;;;;;;;;5005176;28;20450;-88
2023/05/18 13:25:36;;;;;;;4.60;1.58;;;;;;;;;;4993081;28;20083;-86
2023/05/18 13:28:04;;;;;;;4.03;1.38;;;;;;;;;;4993471;28;20499;-85
2023/05/18 13:30:32;;;;;;;7.85;1.52;;;;;;;;;;4992976;28;20050;-86
2023/05/18 13:33:00;;;;;;;5.60;1.30;;;;;;;;;;4992761;28;20495;-86
2023/05/18 13:35:27;;;;;;;3.75;1.52;;;;;;;;;;4993606;28;20133;-86
2023/05/18 13:37:55;;;;;;;2.90;0.90;;;;;;;;;;4992641;28;20054;-87
2023/05/18 13:40:24;;;;;;;4.95;1.48;;;;;;;;;;4992519;28;20081;-88
2023/05/18 13:42:51;;;;;;;5.22;1.58;;;;;;;;;;4992675;28;20054;-86
2023/05/18 13:45:22;;;;;;;5.07;1.20;;;;;;;;;;4992538;28;20133;-87
2023/05/18 13:47:50;;;;;;;3.22;1.40;;;;;;;;;;4992783;28;20046;-86
2023/05/18 13:50:18;;;;;;;3.40;1.17;;;;;;;;;;4993042;28;20056;-86
2023/05/18 13:52:46;;;;;;;7.43;1.40;;;;;;;;;;4992961;28;20078;-89
2023/05/18 13:55:14;;;;;;;5.75;1.27;;;;;;;;;;4992573;28;20495;-86
2023/05/18 13:57:41;;;;;;;2.42;1.23;;;;;;;;;;4992968;28;20042;-87
2023/05/18 14:00:12;;;;;;;5.93;1.45;;;;;;;;;;4997644;28;20057;-86
2023/05/18 14:02:40;;;;;;;3.05;1.20;;;;;;;;;;4996789;28;20475;-88
2023/05/18 14:05:08;;;;;;;4.85;1.40;;;;;;;;;;4997712;28;20054;-89
2023/05/18 14:07:36;;;;;;;3.33;1.45;;;;;;;;;;4996623;28;20046;-86
2023/05/18 14:10:04;;;;;;;3.85;1.30;;;;;;;;;;4996430;28;20415;-89
2023/05/18 14:12:32;;;;;;;5.50;1.15;;;;;;;;;;4996290;28;20093;-88
2023/05/18 14:14:59;;;;;;;4.45;1.65;;;;;;;;;;4996711;28;20078;-91
2023/05/18 14:17:28;;;;;;;5.68;1.10;;;;;;;;;;4996592;28;20086;-88
2023/05/18 14:19:56;;;;;;;5.60;1.38;;;;;;;;;;4997656;28;20053;-86
2023/05/18 14:22:24;;;;;;;4.50;1.38;;;;;;;;;;4996367;28;20050;-87
2023/05/18 14:24:52;;;;;;;8.00;1.67;;;;;;;;;;4996206;28;20081;-89
2023/05/18 14:27:20;;;;;;;6.90;1.45;;;;;;;;;;4997499;28;20384;-91
2023/05/18 14:29:47;;;;;;;2.65;1.35;;;;;;;;;;4996383;28;20079;-88
2023/05/18 14:32:15;;;;;;;5.38;1.38;;;;;;;;;;4996056;28;20104;-87
2023/05/18 14:34:42;;;;;;;4.47;1.48;;;;;;;;;;4999812;28;20089;-88
2023/05/18 14:37:09;;;;;;;3.42;1.17;;;;;;;;;;5005549;28;20054;-87
2023/05/18 14:39:37;;;;;;;6.20;1.45;;;;;;;;;;4996534;28;20054;-87
2023/05/18 14:42:08;;;;;;;4.32;1.17;;;;;;;;;;4997194;28;20046;-86
2023/05/18 14:44:35;;;;;;;9.05;1.80;;;;;;;;;;4995675;28;20042;-86
2023/05/18 14:47:02;;;;;;;3.05;1.05;;;;;;;;;;4996094;28;20090;-87
2023/05/18 14:49:30;;;;;;;5.47;1.58;;;;;;;;;;4996897;28;20042;-87